TAF LFKC
LFKC 090200Z 0903/1003 21012KT 9999 BKN030 BKN050 TX12/0912Z TN07/0918Z TEMPO 0903/0906 SHRA FEW026CB=
METAR LFKC
LFKC 090730Z AUTO 19007KT 160V220 9999 SCT038 BKN045 BKN054 09/04 Q1002 NOSIG=
LFKC 090700Z AUTO 20009KT 9999 -RADZ FEW031 BKN038 BKN044 09/04 Q1002 NOSIG=
LFKC 090630Z AUTO 19008KT 9999 -RA SCT040 BKN046 BKN150 08/04 Q1001 NOSIG=
LFKC 090600Z AUTO 20007KT 9999 -RA FEW037 SCT049 BKN060 09/04 Q1001 NOSIG=
LFKC 090530Z AUTO 20010KT 9999 FEW039 BKN060 BKN072 09/04 Q1001 NOSIG=
WC LFKC
WS LFKC
WV LFKC